Time;durP1;ratioP1;P1;durP2;ratioP2;P2;SDS_P1;SDS_P2;PMS_P1;PMS_P2;Temp;Humidity;BMP_temperature;BMP_pressure;BME280_temperature;BME280_humidity;BME280_pressure;Samples;Min_cycle;Max_cycle;Signal;HPM_P1;HPM_P2
2023/10/09 00:03:03;;;;;;;12.18;2.00;;;;;;;19.30;69.65;100770.69;5092640;28;20097;-66
2023/10/09 00:05:47;;;;;;;12.10;2.08;;;;;;;19.19;69.68;100781.09;5092567;28;20478;-66
2023/10/09 00:08:21;;;;;;;14.13;2.95;;;;;;;19.11;70.78;100789.75;5092572;28;20035;-66
2023/10/09 00:10:57;;;;;;;13.50;2.28;;;;;;;19.15;69.20;100792.41;5092664;28;20164;-66
2023/10/09 00:13:29;;;;;;;14.23;1.90;;;;;;;19.02;69.30;100793.19;5092510;28;20032;-66
2023/10/09 00:16:00;;;;;;;11.27;2.30;;;;;;;18.96;68.31;100806.22;5092340;28;20029;-66
2023/10/09 00:18:29;;;;;;;22.65;3.83;;;;;;;18.70;68.77;100767.63;5091813;28;20028;-66
2023/10/09 00:21:11;;;;;;;23.65;5.13;;;;;;;18.77;66.40;100790.34;5092668;28;20036;-66
2023/10/09 00:23:37;;;;;;;24.77;5.35;;;;;;;18.62;64.75;100792.81;5092155;28;20040;-66
2023/10/09 00:26:12;;;;;;;35.50;6.25;;;;;;;18.52;63.39;100800.59;5092135;28;20074;-66
2023/10/09 00:28:43;;;;;;;22.45;5.30;;;;;;;18.38;62.13;100797.84;5091950;28;20390;-66
2023/10/09 00:31:15;;;;;;;26.17;3.28;;;;;;;18.26;61.21;100801.19;5092112;28;20458;-66
2023/10/09 00:33:41;;;;;;;24.05;3.28;;;;;;;18.19;62.47;100804.59;5091861;28;20550;-66
2023/10/09 00:36:11;;;;;;;21.95;3.10;;;;;;;18.23;62.10;100805.50;5092146;28;20481;-66
2023/10/09 00:38:44;;;;;;;20.35;2.80;;;;;;;18.03;61.52;100795.72;5073451;28;20036;-66
2023/10/09 00:41:10;;;;;;;15.93;2.78;;;;;;;18.09;60.09;100827.16;5091972;28;20040;-66
2023/10/09 00:43:37;;;;;;;19.20;2.63;;;;;;;18.02;59.45;100825.31;5091720;28;20201;-66
2023/10/09 00:48:51;;;;;;;13.95;2.30;;;;;;;17.83;59.41;100849.41;5091577;28;20375;-67
2023/10/09 00:51:18;;;;;;;24.75;2.85;;;;;;;17.77;59.26;100847.63;5073487;28;20032;-67
2023/10/09 00:53:51;;;;;;;30.40;3.78;;;;;;;17.55;59.15;100813.38;5091421;28;20040;-68
2023/10/09 00:59:06;;;;;;;17.42;2.88;;;;;;;17.58;58.86;100851.69;5073696;28;20486;-67
2023/10/09 01:01:36;;;;;;;19.50;2.67;;;;;;;17.55;58.50;100860.34;5091517;28;20047;-67
2023/10/09 01:04:14;;;;;;;21.17;3.92;;;;;;;17.44;58.76;100862.78;5091030;28;20032;-67
2023/10/09 01:06:47;;;;;;;29.25;3.38;;;;;;;17.33;58.78;100866.09;5091381;28;20059;-67
2023/10/09 01:09:14;;;;;;;17.55;3.08;;;;;;;17.26;58.74;100859.94;5091635;28;20077;-67
2023/10/09 01:11:49;;;;;;;24.58;6.70;;;;;;;17.15;57.64;100849.31;5091495;28;20035;-67
2023/10/09 01:14:21;;;;;;;13.32;3.67;;;;;;;17.04;58.07;100861.31;5091274;28;20114;-67
2023/10/09 01:16:47;;;;;;;16.50;2.90;;;;;;;16.98;58.95;100880.31;5055390;28;20127;-68
2023/10/09 01:19:14;;;;;;;20.75;2.10;;;;;;;16.90;59.36;100879.31;5091433;28;20036;-67
2023/10/09 01:21:40;;;;;;;23.40;3.35;;;;;;;16.75;59.52;100886.00;5091198;28;20126;-68
2023/10/09 01:24:08;;;;;;;18.45;2.20;;;;;;;16.49;59.58;100859.44;5090786;28;20123;-68
2023/10/09 01:26:46;;;;;;;14.25;1.65;;;;;;;16.64;58.65;100900.56;5091351;28;20032;-67
2023/10/09 01:29:19;;;;;;;10.93;1.67;;;;;;;16.31;58.33;100863.44;5090166;28;20036;-69
2023/10/09 01:31:55;;;;;;;16.85;1.88;;;;;;;16.47;60.01;100895.91;5091216;28;20032;-68
2023/10/09 01:34:24;;;;;;;8.70;1.75;;;;;;;16.41;59.08;100892.28;5091094;28;20405;-68
2023/10/09 01:36:59;;;;;;;11.53;1.30;;;;;;;16.40;58.81;100899.22;5091052;28;20470;-67
2023/10/09 01:39:30;;;;;;;10.65;2.53;;;;;;;16.23;60.68;100911.03;5090660;28;20043;-67
2023/10/09 01:41:59;;;;;;;18.75;2.42;;;;;;;16.14;60.89;100914.31;5090734;28;20558;-67
2023/10/09 01:44:34;;;;;;;11.55;2.90;;;;;;;16.12;61.07;100916.88;5090684;28;20092;-67
2023/10/09 01:47:13;;;;;;;11.68;2.45;;;;;;;16.21;60.88;100928.34;5090837;28;20040;-67
2023/10/09 01:49:43;;;;;;;7.70;1.33;;;;;;;16.23;59.55;100937.94;5090675;28;20040;-67
2023/10/09 01:52:09;;;;;;;4.75;1.40;;;;;;;16.12;59.11;100924.69;5090396;28;20059;-67
2023/10/09 01:54:46;;;;;;;3.97;1.08;;;;;;;16.23;58.56;100944.91;5090670;28;20047;-67
2023/10/09 01:57:12;;;;;;;10.88;2.15;;;;;;;16.07;58.49;100956.72;5090415;28;20517;-68
2023/10/09 01:59:48;;;;;;;7.15;1.45;;;;;;;16.06;57.95;100954.94;5071441;28;20120;-67
2023/10/09 02:02:26;;;;;;;6.90;1.77;;;;;;;15.99;57.04;100966.97;5090650;28;20105;-67
2023/10/09 02:07:44;;;;;;;9.95;1.27;;;;;;;15.78;56.46;100933.47;5090513;28;20100;-67
2023/10/09 02:10:31;;;;;;;3.50;1.10;;;;;;;16.04;56.47;100978.34;5090825;28;20036;-67
2023/10/09 02:13:11;;;;;;;3.63;1.25;;;;;;;15.95;56.53;100985.94;5090655;28;20032;-67
2023/10/09 02:18:18;;;;;;;13.77;1.58;;;;;;;15.99;55.96;100990.41;5090649;28;20028;-67
2023/10/09 02:26:26;;;;;;;7.25;1.30;;;;;;;15.71;54.84;101000.09;5007864;28;20543;-66
2023/10/09 02:29:20;;;;;;;5.25;1.30;;;;;;;15.66;54.70;101006.94;5013636;28;20468;-67
2023/10/09 02:31:44;;;;;;;13.13;1.77;;;;;;;15.65;55.01;101016.47;5007281;28;20496;-68
2023/10/09 02:34:10;;;;;;;7.47;1.80;;;;;;;15.55;54.18;101003.19;5008034;28;20459;-68
2023/10/09 02:36:42;;;;;;;19.33;2.42;;;;;;;15.45;53.97;100999.47;5007943;28;20173;-69
2023/10/09 02:39:22;;;;;;;4.85;1.50;;;;;;;15.41;53.68;100992.44;5007785;28;20037;-67
2023/10/09 02:41:52;;;;;;;15.70;1.88;;;;;;;15.50;53.40;101022.16;5010532;28;20037;-69
2023/10/09 02:44:24;;;;;;;;;;;;;;;15.48;53.09;101028.19;5011901;28;20042;-68
2023/10/09 02:46:50;;;;;;;5.50;1.23;;;;;;;15.44;53.14;101022.00;5011534;28;19914;-69
2023/10/09 02:49:17;;;;;;;11.93;1.90;;;;;;;15.60;53.30;101023.28;5011549;28;20526;-69
2023/10/09 02:51:42;;;;;;;10.60;1.75;;;;;;;15.60;53.18;101027.59;4991843;28;20096;-69
2023/10/09 02:54:18;;;;;;;10.38;1.77;;;;;;;15.48;53.25;101029.03;4991738;28;20459;-68
2023/10/09 02:57:21;;;;;;;10.20;2.33;;;;;;;15.48;52.65;101036.84;4991692;28;20097;-68
2023/10/09 02:59:44;;;;;;;12.30;1.55;;;;;;;15.39;53.61;101038.31;4991118;28;20060;-68
2023/10/09 03:02:10;;;;;;;10.40;1.17;;;;;;;15.14;53.72;101001.25;5006503;28;20048;-69
2023/10/09 03:04:38;;;;;;;9.93;1.60;;;;;;;15.39;52.79;101052.22;5051041;28;20094;-68
2023/10/09 03:07:05;;;;;;;7.55;1.38;;;;;;;15.28;51.98;101067.53;5034109;28;20037;-69
2023/10/09 03:09:32;;;;;;;6.90;1.80;;;;;;;15.03;51.41;101035.66;5051174;28;20076;-68
2023/10/09 03:12:02;;;;;;;10.70;1.73;;;;;;;15.37;51.89;101083.38;5050626;28;20065;-68
2023/10/09 03:14:38;;;;;;;6.15;1.40;;;;;;;15.23;51.51;101082.16;5050621;28;20037;-68
2023/10/09 03:17:04;;;;;;;10.63;1.20;;;;;;;15.20;51.27;101101.16;5050718;28;20108;-69
2023/10/09 03:19:37;;;;;;;8.95;1.58;;;;;;;15.20;51.58;101100.25;5050505;28;20044;-68
2023/10/09 03:22:03;;;;;;;6.15;1.50;;;;;;;15.08;51.49;101079.09;5050808;28;20041;-67
2023/10/09 03:24:30;;;;;;;5.00;0.90;;;;;;;15.25;50.96;101105.59;5050507;28;20044;-69
2023/10/09 03:26:56;;;;;;;1.25;0.70;;;;;;;15.39;50.80;101119.88;5050191;28;20466;-68
2023/10/09 03:29:24;;;;;;;8.30;1.35;;;;;;;15.12;50.65;101068.84;5050428;28;20507;-68
2023/10/09 03:31:51;;;;;;;3.75;1.02;;;;;;;15.28;50.27;101116.09;5050289;28;20036;-68
2023/10/09 03:34:18;;;;;;;1.77;0.98;;;;;;;15.31;50.11;101124.84;5050149;28;20689;-69
2023/10/09 03:36:45;;;;;;;4.82;1.00;;;;;;;15.33;50.75;101130.13;5050555;28;20033;-69
2023/10/09 03:41:58;;;;;;;4.13;1.15;;;;;;;15.21;50.87;101146.25;5060844;28;20520;-69
2023/10/09 03:44:27;;;;;;;2.35;1.00;;;;;;;15.29;49.58;101130.84;5072499;28;20658;-69
2023/10/09 03:46:53;;;;;;;2.88;1.20;;;;;;;15.24;50.34;101138.53;5072463;28;20493;-68
2023/10/09 03:49:23;;;;;;;3.13;1.00;;;;;;;15.12;50.11;101151.19;5072741;28;20040;-68
2023/10/09 03:51:49;;;;;;;7.25;1.17;;;;;;;15.02;50.15;101137.03;5072288;28;20120;-68
2023/10/09 03:54:15;;;;;;;2.22;1.17;;;;;;;15.10;49.78;101166.72;5054802;28;20391;-67
2023/10/09 03:56:41;;;;;;;2.47;1.00;;;;;;;14.90;49.78;101134.94;5020164;28;20048;-66
2023/10/09 03:59:10;;;;;;;7.68;1.30;;;;;;;15.13;49.52;101177.22;5071806;28;20076;-67
2023/10/09 04:01:39;;;;;;;5.43;1.35;;;;;;;15.14;49.31;101170.31;5072317;28;20036;-67
2023/10/09 04:04:07;;;;;;;6.25;1.30;;;;;;;15.22;49.38;101176.63;5072553;28;20098;-67
2023/10/09 04:06:33;;;;;;;1.35;0.90;;;;;;;15.12;49.23;101170.25;5072199;28;20056;-67
2023/10/09 04:09:13;;;;;;;2.13;0.93;;;;;;;15.12;48.33;101180.66;5072431;28;20033;-67
2023/10/09 04:11:43;;;;;;;2.05;0.93;;;;;;;15.09;48.20;101184.88;5071969;28;20033;-67
2023/10/09 04:14:12;;;;;;;3.13;1.30;;;;;;;15.09;48.87;101180.59;5072076;28;20032;-67
2023/10/09 04:17:32;;;;;;;1.67;1.10;;;;;;;14.89;49.39;101185.16;5071938;28;20086;-67
2023/10/09 04:25:25;;;;;;;9.32;1.70;;;;;;;14.95;49.86;101203.56;5010014;28;20176;-68
2023/10/09 04:27:59;;;;;;;9.32;2.58;;;;;;;14.94;49.14;101183.63;5009674;28;20129;-68
2023/10/09 04:30:26;;;;;;;7.10;2.05;;;;;;;15.15;49.67;101196.38;5027201;28;20076;-67
2023/10/09 04:32:55;;;;;;;4.88;1.23;;;;;;;15.20;48.55;101188.69;5029060;28;20857;-67
2023/10/09 04:35:24;;;;;;;5.68;1.50;;;;;;;15.25;49.37;101187.09;5026819;28;20462;-68
2023/10/09 04:38:03;;;;;;;6.20;1.77;;;;;;;15.19;49.00;101205.16;5022176;28;20029;-68
2023/10/09 04:43:06;;;;;;;12.52;2.40;;;;;;;15.18;48.92;101209.47;5023944;28;20284;-68
2023/10/09 04:48:09;;;;;;;6.60;1.42;;;;;;;15.31;49.20;101222.84;5023941;28;20037;-68
2023/10/09 04:55:53;;;;;;;8.35;1.75;;;;;;;15.00;49.74;101237.50;5004787;28;20038;-67
2023/10/09 04:58:25;;;;;;;5.63;2.22;;;;;;;15.09;49.58;101239.50;5004440;28;20120;-67
2023/10/09 05:03:42;;;;;;;;;;;;;;;15.14;49.75;101251.84;5009111;28;20034;-67
2023/10/09 05:06:32;;;;;;;12.70;2.25;;;;;;;14.96;50.16;101252.13;4998842;28;19971;-67
2023/10/09 05:09:07;;;;;;;;;;;;;;;15.03;50.14;101264.50;5008940;28;20037;-67
2023/10/09 05:14:26;;;;;;;10.18;2.78;;;;;;;15.16;50.21;101275.28;5006144;28;20408;-67
2023/10/09 05:16:55;;;;;;;7.82;2.53;;;;;;;15.18;50.08;101284.88;5006601;28;20065;-67
2023/10/09 05:19:33;;;;;;;15.93;2.53;;;;;;;15.20;50.01;101279.72;5008081;28;20056;-66
2023/10/09 05:22:04;;;;;;;50.38;4.72;;;;;;;15.33;49.81;101284.47;5006356;28;20068;-68
2023/10/09 05:24:42;;;;;;;9.70;2.17;;;;;;;15.15;49.04;101244.91;5008810;28;20053;-68
2023/10/09 05:27:45;;;;;;;7.70;2.97;;;;;;;15.44;49.30;101277.00;5005301;28;20045;-67
2023/10/09 05:30:24;;;;;;;7.05;1.70;;;;;;;15.54;49.16;101288.56;5006487;28;20088;-67
2023/10/09 05:32:55;;;;;;;24.63;3.30;;;;;;;15.44;49.06;101274.41;5020856;28;20090;-68
2023/10/09 05:35:29;;;;;;;15.68;2.28;;;;;;;15.57;49.84;101303.41;5089542;28;20039;-68
2023/10/09 05:38:01;;;;;;;5.72;1.55;;;;;;;15.71;50.47;101316.81;5089860;28;20036;-68
2023/10/09 05:40:31;;;;;;;4.63;1.27;;;;;;;15.74;50.22;101316.88;5079962;28;20074;-68
2023/10/09 05:42:59;;;;;;;4.72;1.30;;;;;;;15.68;49.74;101312.41;5078625;28;20502;-69
2023/10/09 05:51:10;;;;;;;11.52;3.13;;;;;;;15.70;48.62;101315.91;5088311;28;20058;-69
2023/10/09 06:04:20;;;;;;;9.82;3.95;;;;;;;15.44;49.49;101349.88;5081724;28;20449;-66
2023/10/09 06:06:54;;;;;;;4.82;1.80;;;;;;;15.49;50.91;101360.44;5083545;28;20028;-66
2023/10/09 06:14:24;;;;;;;3.42;1.20;;;;;;;15.41;49.90;101357.56;5087333;28;20070;-68
2023/10/09 06:19:27;;;;;;;8.25;1.83;;;;;;;15.47;49.44;101349.94;5088513;28;20028;-67
2023/10/09 06:24:54;;;;;;;2.95;1.30;;;;;;;15.47;49.99;101362.97;5040549;28;20032;-67
2023/10/09 06:27:43;;;;;;;4.63;1.50;;;;;;;15.53;49.92;101362.28;5090046;28;20036;-66
2023/10/09 06:35:21;;;;;;;2.25;1.33;;;;;;;15.41;49.87;101333.28;5093534;28;20032;-67
2023/10/09 06:43:26;;;;;;;2.90;1.17;;;;;;;15.81;49.61;101390.03;5093959;28;20082;-68
2023/10/09 06:48:44;;;;;;;4.03;1.40;;;;;;;15.71;50.05;101366.28;5092594;28;20042;-66
2023/10/09 06:58:57;;;;;;;4.40;1.30;;;;;;;15.72;50.17;101383.66;5093450;28;20048;-69
2023/10/09 07:04:10;;;;;;;2.85;1.42;;;;;;;15.65;50.51;101396.50;5093735;28;20079;-69
2023/10/09 07:24:58;;;;;;;3.55;1.52;;;;;;;15.73;50.59;101429.69;5010613;28;20061;-68
2023/10/09 07:35:57;;;;;;;6.65;1.67;;;;;;;15.71;51.00;101408.81;4971265;28;20070;-68
2023/10/09 07:38:28;;;;;;;5.70;1.80;;;;;;;15.78;50.56;101407.28;4971406;28;20153;-68
2023/10/09 07:43:26;;;;;;;5.55;1.83;;;;;;;15.72;51.80;101392.34;4971368;28;20042;-68
2023/10/09 07:48:26;;;;;;;3.63;1.95;;;;;;;16.03;50.66;101432.38;4971152;28;20038;-68
2023/10/09 07:50:57;;;;;;;3.53;1.23;;;;;;;16.01;50.73;101440.16;4971173;28;20125;-68
2023/10/09 07:53:29;;;;;;;7.45;1.92;;;;;;;15.99;50.75;101425.31;4971267;28;20043;-68
2023/10/09 07:55:58;;;;;;;6.45;1.50;;;;;;;16.09;50.21;101434.31;4975064;28;20167;-68
2023/10/09 07:58:27;;;;;;;11.13;1.80;;;;;;;16.14;50.50;101423.16;5009735;28;20093;-68
2023/10/09 08:01:06;;;;;;;2.35;1.20;;;;;;;16.21;50.03;101438.97;4993242;28;20117;-68
2023/10/09 08:03:34;;;;;;;3.30;1.48;;;;;;;16.29;50.05;101437.47;5017961;28;20046;-67
2023/10/09 08:09:17;;;;;;;4.90;1.65;;;;;;;16.41;49.40;101432.63;5092777;28;20115;-68
2023/10/09 08:17:20;;;;;;;4.00;1.63;;;;;;;16.48;50.28;101386.75;5092033;28;20585;-68
2023/10/09 08:19:53;;;;;;;4.13;1.48;;;;;;;16.61;49.68;101441.00;5074051;28;20066;-67
2023/10/09 08:24:56;;;;;;;3.42;1.45;;;;;;;16.15;49.84;101398.00;5092475;28;20653;-68
2023/10/09 08:33:00;;;;;;;5.43;1.73;;;;;;;16.43;49.69;101419.63;5092082;28;20462;-67
2023/10/09 08:35:48;;;;;;;7.45;1.80;;;;;;;16.50;49.25;101419.84;5091984;28;20044;-67
2023/10/09 08:38:17;;;;;;;5.38;1.95;;;;;;;16.63;49.17;101418.44;5091244;28;20110;-68
2023/10/09 08:40:46;;;;;;;7.32;2.53;;;;;;;16.60;50.62;101422.72;5091613;28;20035;-68
2023/10/09 08:43:19;;;;;;;6.05;1.42;;;;;;;16.58;48.83;101420.03;5091839;28;20032;-68
2023/10/09 08:46:02;;;;;;;5.95;1.50;;;;;;;16.70;48.50;101429.03;5092049;28;20059;-68
2023/10/09 08:48:30;;;;;;;4.53;1.50;;;;;;;16.81;48.08;101425.03;5091667;28;20031;-68
2023/10/09 08:50:56;;;;;;;3.78;1.60;;;;;;;16.92;47.88;101415.78;5091582;28;20054;-68
2023/10/09 08:53:24;;;;;;;6.78;1.70;;;;;;;17.03;48.15;101407.34;5091324;28;20024;-68
2023/10/09 08:55:51;;;;;;;8.20;1.70;;;;;;;17.01;47.95;101409.91;5091135;28;20119;-68
2023/10/09 08:58:24;;;;;;;3.10;1.48;;;;;;;17.14;47.73;101413.72;5091155;28;20040;-68
2023/10/09 09:00:51;;;;;;;5.30;2.22;;;;;;;17.20;47.56;101407.78;5091668;28;20040;-68
2023/10/09 09:03:18;;;;;;;4.50;1.90;;;;;;;17.21;47.94;101399.97;5091110;28;20119;-68
2023/10/09 09:05:52;;;;;;;8.88;1.60;;;;;;;16.98;49.91;101363.78;5090949;28;20052;-69
2023/10/09 09:08:25;;;;;;;9.02;1.83;;;;;;;17.29;48.30;101403.63;5090465;28;20174;-69
2023/10/09 09:13:53;;;;;;;3.70;1.48;;;;;;;17.52;47.13;101389.38;4985608;28;20483;-69
2023/10/09 09:16:20;;;;;;;3.75;1.52;;;;;;;17.51;47.77;101385.91;4981475;28;20041;-69
2023/10/09 09:18:52;;;;;;;3.60;1.50;;;;;;;17.58;47.57;101399.97;4981872;28;20515;-68
2023/10/09 09:21:22;;;;;;;5.35;1.50;;;;;;;17.79;46.33;101397.84;4995071;28;20057;-69
2023/10/09 09:26:59;;;;;;;5.20;1.70;;;;;;;18.36;44.56;101394.69;4929196;29;20090;-69
2023/10/09 09:29:37;;;;;;;3.58;1.50;;;;;;;18.46;44.20;101394.00;4930422;29;20046;-69
2023/10/09 09:32:17;;;;;;;4.15;1.40;;;;;;;17.90;45.61;101364.09;4930445;29;20488;-68
2023/10/09 09:35:05;;;;;;;3.67;1.63;;;;;;;18.42;45.97;101392.19;4930427;29;20415;-69
2023/10/09 09:37:54;;;;;;;4.35;1.75;;;;;;;18.66;44.56;101396.13;4949542;28;20046;-69
2023/10/09 09:40:30;;;;;;;2.42;1.40;;;;;;;18.51;45.25;101386.25;4949742;28;20536;-69
2023/10/09 09:43:06;;;;;;;3.70;1.33;;;;;;;18.58;43.27;101381.16;4949197;28;20553;-69
2023/10/09 09:45:35;;;;;;;3.50;1.33;;;;;;;18.10;44.42;101366.28;4949659;28;20417;-69
2023/10/09 09:48:05;;;;;;;4.05;1.33;;;;;;;18.16;45.88;101376.88;4947644;28;20047;-69
2023/10/09 09:50:43;;;;;;;2.80;1.20;;;;;;;18.12;46.28;101377.66;4949713;28;20050;-69
2023/10/09 09:53:14;;;;;;;4.63;1.30;;;;;;;18.31;45.26;101368.44;4968402;28;20046;-69
2023/10/09 09:55:51;;;;;;;4.85;1.60;;;;;;;18.75;46.50;101370.13;4965998;28;20045;-68
2023/10/09 09:58:23;;;;;;;3.63;1.52;;;;;;;18.66;44.48;101328.13;4964531;28;20570;-69
2023/10/09 10:00:55;;;;;;;4.25;1.90;;;;;;;19.19;44.65;101359.56;4949243;28;20069;-69
2023/10/09 10:03:36;;;;;;;4.13;1.67;;;;;;;19.51;43.61;101351.28;5017181;28;20047;-69
2023/10/09 10:06:09;;;;;;;3.75;1.63;;;;;;;19.55;43.09;101303.34;5088294;28;20043;-69
2023/10/09 10:08:38;;;;;;;3.97;1.40;;;;;;;19.91;40.45;101343.13;5088921;28;20044;-69
2023/10/09 10:11:05;;;;;;;3.70;1.60;;;;;;;19.98;41.10;101346.72;5090733;28;20040;-69
2023/10/09 10:13:42;;;;;;;5.50;2.17;;;;;;;20.16;41.08;101322.44;5090272;28;20040;-68
2023/10/09 10:18:59;;;;;;;2.38;1.40;;;;;;;19.25;40.78;101238.34;5090700;28;20119;-69
2023/10/09 10:24:16;;;;;;;4.93;2.00;;;;;;;20.10;41.16;101268.22;5067932;28;20048;-69
2023/10/09 10:26:41;;;;;;;5.53;1.67;;;;;;;20.39;39.56;101280.72;5087672;28;20127;-68
2023/10/09 10:29:26;;;;;;;6.75;2.08;;;;;;;20.66;39.11;101263.44;5054192;28;20048;-69
2023/10/09 10:31:57;;;;;;;3.85;1.48;;;;;;;20.07;38.42;101226.22;5089503;28;20040;-67
2023/10/09 10:34:24;;;;;;;3.30;1.48;;;;;;;19.52;40.17;101245.69;5089656;28;20036;-67
2023/10/09 10:36:58;;;;;;;5.93;1.88;;;;;;;19.60;40.54;101221.31;5086969;28;20067;-67
2023/10/09 10:39:42;;;;;;;5.35;1.90;;;;;;;19.84;39.47;101178.84;5087286;28;20040;-70
2023/10/09 10:42:33;;;;;;;7.65;1.90;;;;;;;20.56;39.71;101235.41;5083011;28;20032;-66
2023/10/09 10:44:57;;;;;;;6.80;1.77;;;;;;;20.83;38.35;101229.50;5089406;28;20132;-69
2023/10/09 10:47:34;;;;;;;4.03;1.92;;;;;;;20.89;37.92;101228.69;5049186;28;20033;-68
2023/10/09 10:52:50;;;;;;;5.63;1.70;;;;;;;20.88;37.79;101217.28;5085929;28;20184;-69
2023/10/09 11:03:54;;;;;;;5.07;1.70;;;;;;;20.26;40.40;101224.69;5008378;28;20030;-65
2023/10/09 11:06:36;;;;;;;4.03;1.92;;;;;;;20.74;39.52;101217.22;5019278;28;20224;-65
2023/10/09 11:09:21;;;;;;;5.93;1.90;;;;;;;21.08;38.42;101206.03;5014910;28;20052;-65
2023/10/09 11:11:49;;;;;;;6.82;2.28;;;;;;;21.33;37.44;101209.66;5014723;28;20068;-66
2023/10/09 11:14:14;;;;;;;7.72;2.80;;;;;;;21.38;38.27;101176.41;5011873;28;20113;-65
2023/10/09 11:16:50;;;;;;;7.22;2.47;;;;;;;21.68;37.59;101201.03;4966068;28;20058;-66
2023/10/09 11:24:34;;;;;;;11.63;2.55;;;;;;;22.12;35.17;101176.59;5012241;28;20042;-69
2023/10/09 11:27:06;;;;;;;15.13;2.47;;;;;;;21.45;37.78;101151.91;5004936;28;20141;-68
2023/10/09 11:32:23;;;;;;;3.00;1.40;;;;;;;20.83;37.99;101142.91;5014191;28;20034;-67
2023/10/09 11:34:52;;;;;;;4.38;1.88;;;;;;;20.93;38.36;101180.59;5015321;28;20406;-67
2023/10/09 11:39:55;;;;;;;5.10;1.95;;;;;;;21.05;38.07;101159.66;5079546;28;20028;-68
2023/10/09 11:45:19;;;;;;;5.18;1.70;;;;;;;20.78;39.45;101102.66;5085638;28;20079;-67
2023/10/09 11:47:59;;;;;;;6.97;1.70;;;;;;;20.95;39.54;101140.34;5077792;28;20082;-67
2023/10/09 11:50:51;;;;;;;6.95;2.13;;;;;;;21.13;39.01;101147.44;5090543;28;20040;-67
2023/10/09 11:53:33;;;;;;;6.15;1.50;;;;;;;21.28;38.88;101136.13;5087419;28;20512;-67
2023/10/09 11:55:59;;;;;;;4.78;2.10;;;;;;;21.04;38.83;101121.13;5091089;28;20043;-67
2023/10/09 11:58:24;;;;;;;4.75;1.90;;;;;;;21.36;39.95;101124.72;5091732;28;20433;-67
2023/10/09 12:00:51;;;;;;;5.68;2.00;;;;;;;21.54;38.41;101114.28;5091652;28;20028;-67
2023/10/09 12:03:21;;;;;;;3.20;1.35;;;;;;;21.82;37.78;101109.09;5090576;28;20040;-68
2023/10/09 12:05:47;;;;;;;5.45;1.77;;;;;;;21.81;37.51;101108.22;5086426;28;20053;-68
2023/10/09 12:08:15;;;;;;;5.93;1.80;;;;;;;21.49;37.73;101093.25;5084030;28;20040;-67
2023/10/09 12:10:42;;;;;;;7.68;2.25;;;;;;;21.34;38.25;101101.09;5084165;28;20166;-67
2023/10/09 12:13:07;;;;;;;8.13;1.92;;;;;;;21.37;38.38;101106.38;5091266;28;20086;-70
2023/10/09 12:15:37;;;;;;;10.45;2.17;;;;;;;21.56;39.44;101104.69;5089510;28;20063;-69
2023/10/09 12:18:08;;;;;;;;;;;;;;;21.76;37.49;101090.69;5101090;28;20508;-66
2023/10/09 12:20:34;;;;;;;9.77;2.05;;;;;;;21.57;38.10;101092.41;5086696;28;19955;-68
2023/10/09 12:23:04;;;;;;;4.85;2.20;;;;;;;21.48;38.15;101090.63;5090314;28;20047;-68
2023/10/09 12:25:31;;;;;;;;;;;;;;;21.61;39.83;101089.81;5089468;28;20046;-68
2023/10/09 12:27:57;;;;;;;5.70;2.28;;;;;;;21.68;38.19;101089.81;5051757;28;19918;-68
2023/10/09 12:30:26;;;;;;;6.30;2.10;;;;;;;21.67;37.21;101088.06;5076967;28;20036;-69
2023/10/09 12:32:57;;;;;;;4.80;1.60;;;;;;;21.66;37.30;101076.69;5086281;28;20043;-69
2023/10/09 12:35:26;;;;;;;6.25;2.00;;;;;;;21.53;37.42;101069.63;5049084;28;20045;-69
2023/10/09 12:37:54;;;;;;;6.50;2.30;;;;;;;21.63;37.52;101064.41;5083726;28;20126;-69
2023/10/09 12:40:23;;;;;;;5.80;1.92;;;;;;;21.74;36.84;101064.41;5087464;28;20036;-69
2023/10/09 12:42:49;;;;;;;;;;;;;;;21.55;37.08;101060.88;5090270;28;20059;-68
2023/10/09 12:45:17;;;;;;;6.22;2.47;;;;;;;21.49;37.36;101056.47;5087909;28;20380;-68
2023/10/09 12:47:43;;;;;;;4.93;2.05;;;;;;;21.39;37.89;101051.22;5062880;28;20528;-68
2023/10/09 12:50:13;;;;;;;17.50;2.92;;;;;;;21.34;38.63;101052.06;5083689;28;20033;-68
2023/10/09 12:52:39;;;;;;;12.63;2.45;;;;;;;21.47;38.52;101031.06;5085997;28;20465;-69
2023/10/09 12:55:07;;;;;;;7.95;1.75;;;;;;;21.23;37.52;101006.53;5086393;28;20068;-68
2023/10/09 12:57:33;;;;;;;4.53;1.90;;;;;;;21.25;38.24;101027.56;5088800;28;20044;-68
2023/10/09 12:59:59;;;;;;;5.53;1.67;;;;;;;21.25;39.15;101049.44;5092155;28;20070;-68
2023/10/09 13:02:31;;;;;;;10.13;2.03;;;;;;;21.30;38.87;101049.44;5091691;28;20058;-68
2023/10/09 13:05:00;;;;;;;8.75;2.05;;;;;;;21.16;39.23;101008.28;5091560;28;20081;-67
2023/10/09 13:07:25;;;;;;;12.60;2.15;;;;;;;21.51;39.81;101048.59;5091700;28;20032;-67
2023/10/09 13:10:09;;;;;;;6.22;1.73;;;;;;;21.41;37.75;101013.56;5091526;28;20086;-67
2023/10/09 13:12:40;;;;;;;10.55;2.28;;;;;;;21.49;39.42;101030.19;5091764;28;20494;-67
2023/10/09 13:15:09;;;;;;;9.73;1.85;;;;;;;21.53;39.18;101017.06;5073280;28;20058;-67
2023/10/09 13:17:36;;;;;;;5.35;1.60;;;;;;;21.49;39.65;101021.44;5091612;28;20040;-67
2023/10/09 13:20:04;;;;;;;4.32;1.55;;;;;;;21.29;39.89;100982.91;5091539;28;20050;-67
2023/10/09 13:22:30;;;;;;;6.85;1.92;;;;;;;21.60;38.84;101008.34;5091459;28;20036;-67
2023/10/09 13:25:03;;;;;;;6.05;2.03;;;;;;;21.64;39.24;101004.84;5090805;28;20039;-67
2023/10/09 13:27:33;;;;;;;7.65;2.13;;;;;;;21.48;37.68;100999.56;5091623;28;20031;-67
2023/10/09 13:30:05;;;;;;;6.57;2.65;;;;;;;21.17;38.34;100991.66;5091356;28;20481;-67
2023/10/09 13:32:35;;;;;;;8.23;1.85;;;;;;;21.02;39.39;100949.63;5091439;28;20486;-67
2023/10/09 13:35:03;;;;;;;9.93;2.00;;;;;;;21.14;37.94;100970.63;5091112;28;20126;-68
2023/10/09 13:37:30;;;;;;;5.43;1.85;;;;;;;21.03;38.52;100966.25;5091375;28;20039;-67
2023/10/09 13:39:57;;;;;;;9.30;2.60;;;;;;;20.63;38.62;100917.16;5091264;28;20115;-68
2023/10/09 13:42:26;;;;;;;10.13;2.70;;;;;;;20.90;38.72;100960.09;5091112;28;20439;-68
2023/10/09 13:44:55;;;;;;;7.72;2.22;;;;;;;20.97;38.83;100943.47;5091168;28;20123;-68
2023/10/09 13:47:20;;;;;;;9.10;2.40;;;;;;;21.12;38.62;100954.03;5091101;28;20040;-68
2023/10/09 13:49:50;;;;;;;8.63;2.10;;;;;;;21.07;38.02;100934.78;5091230;28;20055;-68
2023/10/09 13:52:18;;;;;;;8.75;2.95;;;;;;;21.08;38.19;100954.88;5090834;28;20628;-68
2023/10/09 13:54:48;;;;;;;12.82;2.90;;;;;;;21.03;38.55;100948.75;5091092;28;20081;-68
2023/10/09 13:57:14;;;;;;;;;;;;;;;20.82;38.51;100954.81;5091380;28;20400;-68
2023/10/09 13:59:49;;;;;;;10.43;2.40;;;;;;;20.79;39.72;100947.81;5091003;28;20309;-68
2023/10/09 14:02:18;;;;;;;11.65;2.60;;;;;;;20.93;38.98;100941.75;5090923;28;20039;-67
2023/10/09 14:04:45;;;;;;;12.15;2.75;;;;;;;21.07;38.56;100945.28;5091153;28;20101;-68
2023/10/09 14:07:10;;;;;;;5.32;2.17;;;;;;;21.21;39.41;100947.91;5054745;28;20040;-67
2023/10/09 14:12:10;;;;;;;6.97;2.10;;;;;;;21.33;39.44;100947.00;5091041;28;20028;-67
2023/10/09 14:14:46;;;;;;;9.10;2.20;;;;;;;21.23;38.43;100942.66;5090958;28;20072;-67
2023/10/09 14:17:12;;;;;;;6.00;1.98;;;;;;;21.13;40.25;100944.38;5091020;28;20044;-67
2023/10/09 14:19:48;;;;;;;8.65;3.20;;;;;;;21.19;39.77;100939.13;5090981;28;20043;-67
2023/10/09 14:22:19;;;;;;;5.60;2.10;;;;;;;21.29;39.57;100925.13;5073574;28;20098;-67
2023/10/09 14:24:55;;;;;;;11.95;2.10;;;;;;;21.34;38.13;100915.50;5090646;28;20054;-67
2023/10/09 14:27:23;;;;;;;5.97;2.05;;;;;;;21.47;38.51;100912.84;5090788;28;20103;-67
2023/10/09 14:29:49;;;;;;;7.78;1.90;;;;;;;21.53;37.87;100912.00;5090831;28;20040;-67
2023/10/09 14:32:16;;;;;;;5.50;2.13;;;;;;;21.56;37.51;100904.13;5090686;28;20028;-68
2023/10/09 14:34:50;;;;;;;6.53;2.28;;;;;;;21.50;37.07;100902.38;5090651;28;20040;-68
2023/10/09 14:37:18;;;;;;;4.22;2.13;;;;;;;21.53;37.68;100910.22;5093441;28;20043;-67
2023/10/09 14:39:48;;;;;;;5.07;1.80;;;;;;;21.44;37.25;100907.63;5076388;28;20055;-68
2023/10/09 14:42:17;;;;;;;8.68;2.13;;;;;;;21.26;38.28;100903.25;5094588;28;20113;-68
2023/10/09 14:44:45;;;;;;;4.53;1.48;;;;;;;21.04;37.63;100902.38;5094474;28;20131;-68